Time;durP1;ratioP1;P1;durP2;ratioP2;P2;SDS_P1;SDS_P2;PMS_P1;PMS_P2;Temp;Humidity;BMP_temperature;BMP_pressure;BME280_temperature;BME280_humidity;BME280_pressure;Samples;Min_cycle;Max_cycle;Signal;HPM_P1;HPM_P2
2023/04/13 00:00:45;;;;;;;;;;;;;;;5.08;58.53;101846.16;5055868;28;19958;-67
2023/04/13 00:03:15;;;;;;;;;;;;;;;5.03;58.62;101852.69;5055257;28;19920;-67
2023/04/13 00:05:41;;;;;;;;;;;;;;;4.94;59.59;101846.22;5055420;28;20283;-68
2023/04/13 00:08:07;;;;;;;;;;;;;;;4.92;59.73;101845.50;5055158;28;20007;-67
2023/04/13 00:10:39;;;;;;;;;;;;;;;4.86;61.07;101841.44;5054934;28;19912;-67
2023/04/13 00:13:05;;;;;;;;;;;;;;;4.78;60.75;101838.44;5055071;28;19971;-68
2023/04/13 00:15:33;;;;;;;;;;;;;;;4.75;62.22;101845.72;5054776;28;19912;-66
2023/04/13 00:17:58;;;;;;;;;;;;;;;4.66;62.66;101845.38;5054799;28;19966;-68
2023/04/13 00:20:24;;;;;;;;;;;;;;;4.66;63.00;101845.38;5054875;28;19912;-68
2023/04/13 00:22:49;;;;;;;;;;;;;;;4.60;63.97;101837.81;5054452;28;20007;-68
2023/04/13 00:25:15;;;;;;;;;;;;;;;4.56;64.31;101840.75;5054567;28;20007;-68
2023/04/13 00:27:42;;;;;;;;;;;;;;;4.52;64.81;101848.03;5054263;28;20953;-67
2023/04/13 00:30:08;;;;;;;;;;;;;;;4.50;65.51;101854.34;5054188;28;20280;-68
2023/04/13 00:32:34;;;;;;;;;;;;;;;4.47;65.56;101855.38;5054356;28;19917;-68
2023/04/13 00:34:59;;;;;;;;;;;;;;;4.44;66.01;101860.00;5053756;28;19919;-67
2023/04/13 00:37:28;;;;;;;;;;;;;;;4.40;66.44;101851.44;5035898;28;19913;-66
2023/04/13 00:39:53;;;;;;;;;;;;;;;4.31;67.42;101871.31;5053053;28;19912;-68
2023/04/13 00:42:19;;;;;;;;;;;;;;;4.25;67.81;101870.84;5053131;28;19912;-68
2023/04/13 00:44:44;;;;;;;;;;;;;;;4.25;68.10;101865.56;5035950;28;19990;-68
2023/04/13 00:47:11;;;;;;;;;;;;;;;4.20;67.99;101854.47;5053834;28;20272;-68
2023/04/13 00:49:36;;;;;;;;;;;;;;;4.12;68.84;101859.38;5053396;28;20371;-67
2023/04/13 00:52:01;;;;;;;;;;;;;;;4.07;69.13;101861.44;5053379;28;19920;-68
2023/04/13 00:54:28;;;;;;;;;;;;;;;3.95;70.72;101868.31;5053317;28;20356;-67
2023/04/13 00:56:54;;;;;;;;;;;;;;;3.86;71.44;101872.34;5053401;28;20343;-66
2023/04/13 00:59:20;;;;;;;;;;;;;;;3.80;71.39;101864.81;5053457;28;19956;-67
2023/04/13 01:01:49;;;;;;;;;;;;;;;3.73;72.48;101861.69;5053583;28;20261;-68
2023/04/13 01:04:17;;;;;;;;;;;;;;;3.71;72.54;101865.34;5053262;28;20323;-68
2023/04/13 01:06:56;;;;;;;;;;;;;;;3.64;73.74;101864.88;5035269;28;19918;-69
2023/04/13 01:09:29;;;;;;;;;;;;;;;3.59;74.05;101863.44;5053212;28;19919;-68
2023/04/13 01:12:01;;;;;;;;;;;;;;;3.50;74.83;101858.75;5035320;28;20019;-68
2023/04/13 01:14:39;;;;;;;;;;;;;;;3.43;75.77;101872.25;5053056;28;20351;-69
2023/04/13 01:17:12;;;;;;;;;;;;;;;3.38;76.02;101868.19;5053304;28;20486;-69
2023/04/13 01:19:39;;;;;;;;;;;;;;;3.34;76.19;101864.88;5052757;28;19912;-67
2023/04/13 01:22:06;;;;;;;;;;;;;;;3.29;76.87;101872.22;5053348;28;19923;-69
2023/04/13 01:24:39;;;;;;;;;;;;;;;3.20;78.03;101875.38;5052554;28;19920;-66
2023/04/13 01:27:19;;;;;;;;;;;;;;;3.16;78.17;101875.63;5052907;28;19932;-69
2023/04/13 01:29:45;;;;;;;;;;;;;;;3.14;77.49;101874.84;5052496;28;20031;-69
2023/04/13 01:32:12;;;;;;;;;;;;;;;3.07;78.90;101869.09;5052434;28;19940;-67
2023/04/13 01:34:38;;;;;;;;;;;;;;;3.04;79.35;101880.66;5052818;28;19912;-69
2023/04/13 01:37:05;;;;;;;;;;;;;;;3.01;79.88;101879.97;5052624;28;19919;-67
2023/04/13 01:39:32;;;;;;;;;;;;;;;3.03;79.52;101889.47;5052417;28;20062;-68
2023/04/13 01:41:57;;;;;;;;;;;;;;;3.03;79.32;101893.91;5034711;28;19912;-69
2023/04/13 01:44:23;;;;;;;;;;;;;;;3.04;79.39;101900.88;5052236;28;19936;-68
2023/04/13 01:46:51;;;;;;;;;;;;;;;2.99;79.47;101897.66;5053660;28;19917;-67
2023/04/13 01:49:18;;;;;;;;;;;;;;;2.97;79.85;101894.25;5052816;28;19921;-68
2023/04/13 01:51:45;;;;;;;;;;;;;;;2.92;80.14;101902.41;5052296;28;20356;-68
2023/04/13 01:54:15;;;;;;;;;;;;;;;2.89;80.53;101901.69;5052186;28;20319;-70
2023/04/13 01:56:40;;;;;;;;;;;;;;;2.81;81.61;101899.50;5052418;28;19967;-68
2023/04/13 01:59:06;;;;;;;;;;;;;;;2.76;82.50;101923.44;5052227;28;19916;-67
2023/04/13 02:01:31;;;;;;;;;;;;;;;2.76;82.15;101918.19;5052376;28;19920;-67
2023/04/13 02:03:57;;;;;;;;;;;;;;;2.72;82.71;101900.03;5052627;28;19999;-67
2023/04/13 02:06:23;;;;;;;;;;;;;;;2.69;83.01;101914.19;5052646;28;19960;-68
2023/04/13 02:08:48;;;;;;;;;;;;;;;2.69;82.95;101919.47;5052302;28;19952;-69
2023/04/13 02:11:14;;;;;;;;;;;;;;;2.63;84.05;101917.16;5052080;28;19999;-69
2023/04/13 02:13:40;;;;;;;;;;;;;;;2.62;83.31;101926.00;5052397;28;19913;-67
2023/04/13 02:16:27;;;;;;;;;;;;;;;2.59;84.20;101926.13;5037197;28;19912;-68
2023/04/13 02:18:52;;;;;;;;;;;;;;;2.55;84.95;101919.34;5052130;28;19913;-68
2023/04/13 02:21:17;;;;;;;;;;;;;;;2.56;84.54;101922.81;5052171;28;19920;-68
2023/04/13 02:23:43;;;;;;;;;;;;;;;2.50;85.08;101926.63;5051975;28;19964;-67
2023/04/13 02:26:09;;;;;;;;;;;;;;;2.51;84.83;101924.84;5052048;28;20360;-67
2023/04/13 02:28:35;;;;;;;;;;;;;;;2.53;84.80;101931.72;5034020;28;19913;-67
2023/04/13 02:31:04;;;;;;;;;;;;;;;2.51;84.81;101928.31;5052090;28;19913;-68
2023/04/13 02:33:30;;;;;;;;;;;;;;;2.46;85.09;101922.47;5052022;28;19955;-67
2023/04/13 02:36:00;;;;;;;;;;;;;;;2.39;86.27;101929.00;5052096;28;19967;-68
2023/04/13 02:38:26;;;;;;;;;;;;;;;2.41;86.20;101940.28;5051940;28;19936;-68
2023/04/13 02:40:56;;;;;;;;;;;;;;;2.39;86.37;101945.63;5051675;28;20341;-68
2023/04/13 02:43:21;;;;;;;;;;;;;;;2.37;86.26;101944.00;5051882;28;20364;-69
2023/04/13 02:45:47;;;;;;;;;;;;;;;2.31;86.84;101955.66;5052352;28;19920;-67
2023/04/13 02:48:12;;;;;;;;;;;;;;;2.27;87.96;101948.88;5051932;28;19929;-67
2023/04/13 02:50:38;;;;;;;;;;;;;;;2.28;87.13;101962.88;5051883;28;20015;-67
2023/04/13 02:53:03;;;;;;;;;;;;;;;2.28;87.69;101962.88;5051942;28;19912;-67
2023/04/13 02:55:28;;;;;;;;;;;;;;;2.24;87.82;101969.22;5054880;28;20379;-68
2023/04/13 02:57:54;;;;;;;;;;;;;;;2.25;87.85;101963.03;5063228;28;20340;-67
2023/04/13 03:00:20;;;;;;;;;;;;;;;2.20;88.03;101972.94;5066064;28;19919;-68
2023/04/13 03:02:45;;;;;;;;;;;;;;;2.23;87.66;101981.50;5056176;28;20336;-68
2023/04/13 03:05:11;;;;;;;;;;;;;;;2.21;88.56;101977.25;5055322;28;20276;-68
2023/04/13 03:07:37;;;;;;;;;;;;;;;2.22;88.56;101978.97;5056353;28;19967;-67
2023/04/13 03:10:04;;;;;;;;;;;;;;;2.24;88.44;101977.09;5056134;28;19912;-70
2023/04/13 03:12:30;;;;;;;;;;;;;;;2.24;88.36;101985.00;5055923;28;19920;-66
2023/04/13 03:14:55;;;;;;;;;;;;;;;2.23;88.38;101984.13;5055352;28;19912;-68
2023/04/13 03:17:21;;;;;;;;;;;;;;;2.22;88.55;101989.47;5055468;28;19913;-69
2023/04/13 03:19:47;;;;;;;;;;;;;;;2.26;88.26;101983.13;5055670;28;20332;-68
2023/04/13 03:22:13;;;;;;;;;;;;;;;2.26;88.77;101986.59;5055714;28;19912;-68
2023/04/13 03:24:38;;;;;;;;;;;;;;;2.31;87.87;101991.63;5055768;28;19959;-70
2023/04/13 03:27:04;;;;;;;;;;;;;;;2.34;87.82;101988.88;5055572;28;20020;-70
2023/04/13 03:29:30;;;;;;;;;;;;;;;2.37;87.72;102001.84;5055964;28;19916;-69
2023/04/13 03:31:55;;;;;;;;;;;;;;;2.38;87.72;102006.16;5055526;28;20272;-67
2023/04/13 03:34:20;;;;;;;;;;;;;;;2.37;87.73;102004.47;5056065;28;19912;-68
2023/04/13 03:36:46;;;;;;;;;;;;;;;2.38;87.62;102000.91;5056002;28;20000;-67
2023/04/13 03:39:11;;;;;;;;;;;;;;;2.41;87.13;102001.59;5055237;28;19913;-68
2023/04/13 03:41:36;;;;;;;;;;;;;;;2.39;88.01;102002.63;5020935;28;19920;-66
2023/04/13 03:44:03;;;;;;;;;;;;;;;2.40;87.61;102004.31;5055554;28;20360;-70
2023/04/13 03:46:30;;;;;;;;;;;;;;;2.54;87.33;102014.09;5021145;28;20011;-68
2023/04/13 03:48:56;;;;;;;;;;;;;;;2.69;86.31;102019.41;5054793;28;19913;-69
2023/04/13 03:51:21;;;;;;;;;;;;;;;2.75;85.95;102032.22;5054824;28;20319;-69
2023/04/13 03:53:47;;;;;;;;;;;;;;;2.71;85.17;102025.44;5055197;28;19917;-67
2023/04/13 03:56:12;;;;;;;;;;;;;;;2.63;85.81;102016.25;5054708;28;19921;-67
2023/04/13 03:58:38;;;;;;;;;;;;;;;2.59;85.68;102023.44;5054548;28;19912;-66
2023/04/13 04:01:03;;;;;;;;;;;;;;;2.56;86.45;102028.84;5036451;28;19913;-68
2023/04/13 04:03:29;;;;;;;;;;;;;;;2.50;86.65;102034.44;5054331;28;19943;-69
2023/04/13 04:05:54;;;;;;;;;;;;;;;2.53;86.30;102025.53;5059159;28;20415;-69
2023/04/13 04:08:19;;;;;;;;;;;;;;;2.61;86.04;102024.22;5069371;28;19916;-69
2023/04/13 04:10:45;;;;;;;;;;;;;;;2.67;85.60;102031.78;5054510;28;19917;-66
2023/04/13 04:13:10;;;;;;;;;;;;;;;2.73;85.44;102034.09;5053269;28;19951;-67
2023/04/13 04:15:35;;;;;;;;;;;;;;;2.76;84.89;102039.19;5054333;28;19913;-66
2023/04/13 04:18:01;;;;;;;;;;;;;;;2.77;84.79;102035.63;5046847;28;19966;-67
2023/04/13 04:20:26;;;;;;;;;;;;;;;2.87;84.46;102037.75;5053924;28;19920;-69
2023/04/13 04:22:52;;;;;;;;;;;;;;;2.75;84.65;102036.66;5052808;28;19913;-69
2023/04/13 04:25:21;;;;;;;;;;;;;;;2.74;84.82;102035.78;5055250;28;19971;-71
2023/04/13 04:27:56;;;;;;;;;;;;;;;2.71;85.17;102030.69;5057823;28;20375;-70
2023/04/13 04:30:22;;;;;;;;;;;;;;;2.70;85.30;102036.91;5065566;28;20437;-69
2023/04/13 04:32:47;;;;;;;;;;;;;;;2.62;85.28;102036.44;5064775;28;19912;-69
2023/04/13 04:35:15;;;;;;;;;;;;;;;2.65;85.07;102057.34;5053861;28;19967;-68
2023/04/13 04:37:41;;;;;;;;;;;;;;;2.66;85.38;102050.28;5054173;28;19912;-67
2023/04/13 04:40:09;;;;;;;;;;;;;;;2.71;84.65;102043.84;5056933;28;19913;-68
2023/04/13 04:42:36;;;;;;;;;;;;;;;2.77;84.66;102054.03;5056345;28;19916;-68
2023/04/13 04:45:03;;;;;;;;;;;;;;;2.84;83.90;102044.03;5056277;28;19913;-70
2023/04/13 04:47:29;;;;;;;;;;;;;;;2.82;84.08;102042.44;5056270;28;19927;-70
2023/04/13 04:49:56;;;;;;;;;;;;;;;2.80;83.93;102048.63;5055943;28;19917;-70
2023/04/13 04:52:22;;;;;;;;;;;;;;;2.83;83.83;102047.59;5055861;28;19913;-69
2023/04/13 04:54:47;;;;;;;;;;;;;;;2.83;84.17;102044.13;5055862;28;19975;-69
2023/04/13 04:57:13;;;;;;;;;;;;;;;2.87;83.77;102053.53;5054992;28;19992;-70
2023/04/13 04:59:39;;;;;;;;;;;;;;;3.01;83.28;102048.41;5054488;28;20316;-70
2023/04/13 05:02:04;;;;;;;;;;;;;;;3.06;82.92;102059.53;5055005;28;19917;-70
2023/04/13 05:04:30;;;;;;;;;;;;;;;3.10;82.91;102061.06;5054280;28;19924;-70
2023/04/13 05:06:56;;;;;;;;;;;;;;;3.13;82.49;102068.78;5054567;28;19917;-70
2023/04/13 05:09:21;;;;;;;;;;;;;;;3.09;82.38;102067.25;5054009;28;19970;-70
2023/04/13 05:11:46;;;;;;;;;;;;;;;3.15;82.22;102074.81;5055023;28;20014;-70
2023/04/13 05:14:12;;;;;;;;;;;;;;;3.25;81.74;102077.84;5055942;28;19935;-70
2023/04/13 05:16:37;;;;;;;;;;;;;;;3.27;81.84;102082.06;5055648;28;19913;-69
2023/04/13 05:19:06;;;;;;;;;;;;;;;3.21;82.08;102078.94;5053975;28;20364;-67
2023/04/13 05:21:32;;;;;;;;;;;;;;;3.31;81.79;102083.59;5054124;28;19912;-70
2023/04/13 05:23:57;;;;;;;;;;;;;;;3.46;81.28;102081.06;5055194;28;19919;-70
2023/04/13 05:26:26;;;;;;;;;;;;;;;3.53;80.65;102085.06;5053350;28;19917;-69
2023/04/13 05:28:51;;;;;;;;;;;;;;;3.50;80.55;102077.34;5054524;28;19919;-70
2023/04/13 05:31:16;;;;;;;;;;;;;;;3.48;80.83;102093.22;5054575;28;19912;-71
2023/04/13 05:33:42;;;;;;;;;;;;;;;3.53;80.29;102098.25;5053472;28;20019;-70
2023/04/13 05:36:08;;;;;;;;;;;;;;;3.47;80.89;102099.44;5051824;28;19919;-70
2023/04/13 05:38:33;;;;;;;;;;;;;;;3.43;80.80;102089.97;5053172;28;19919;-69
2023/04/13 05:40:58;;;;;;;;;;;;;;;3.48;80.26;102105.56;5053022;28;20441;-69
2023/04/13 05:43:24;;;;;;;;;;;;;;;3.53;80.18;102099.09;5053447;28;19942;-71
2023/04/13 05:45:50;;;;;;;;;;;;;;;3.51;80.79;102115.91;5053620;28;19913;-69
2023/04/13 05:48:15;;;;;;;;;;;;;;;3.41;80.60;102121.66;5052995;28;19912;-66
2023/04/13 05:50:40;;;;;;;;;;;;;;;3.46;80.78;102107.38;5051576;28;20043;-68
2023/04/13 05:53:06;;;;;;;;;;;;;;;3.43;80.27;102104.00;5053740;28;19920;-67
2023/04/13 05:55:32;;;;;;;;;;;;;;;3.46;80.42;102102.13;5054211;28;19913;-68
2023/04/13 05:57:57;;;;;;;;;;;;;;;3.45;80.72;102103.06;5052960;28;19912;-67
2023/04/13 06:00:22;;;;;;;;;;;;;;;3.53;80.44;102111.41;5053075;28;20378;-68
2023/04/13 06:02:49;;;;;;;;;;;;;;;3.49;80.48;102112.53;5052534;28;19920;-69
2023/04/13 06:05:17;;;;;;;;;;;;;;;3.41;80.45;102103.22;5055397;28;19917;-67
2023/04/13 06:07:43;;;;;;;;;;;;;;;3.34;80.83;102108.91;5054516;28;20007;-67
2023/04/13 06:10:11;;;;;;;;;;;;;;;3.42;80.60;102098.81;5053333;28;19956;-68
2023/04/13 06:12:38;;;;;;;;;;;;;;;3.36;80.76;102088.63;5052730;28;20086;-69
2023/04/13 06:15:04;;;;;;;;;;;;;;;3.33;81.61;102099.31;5052688;28;20140;-67
2023/04/13 06:17:29;;;;;;;;;;;;;;;3.34;80.68;102120.31;5052339;28;19913;-67
2023/04/13 06:19:55;;;;;;;;;;;;;;;3.34;79.93;102125.56;5052219;28;19917;-67
2023/04/13 06:22:21;;;;;;;;;;;;;;;3.29;80.61;102127.59;5052270;28;19912;-69
2023/04/13 06:24:46;;;;;;;;;;;;;;;3.27;80.46;102118.94;5052650;28;19974;-68
2023/04/13 06:27:11;;;;;;;;;;;;;;;3.26;80.76;102119.88;5050599;28;20288;-70
2023/04/13 06:29:37;;;;;;;;;;;;;;;3.33;80.45;102129.13;5052156;28;20378;-70
2023/04/13 06:32:03;;;;;;;;;;;;;;;3.35;79.56;102131.69;5051863;28;19913;-68
2023/04/13 06:34:29;;;;;;;;;;;;;;;3.29;79.45;102118.84;5058271;28;19917;-67
2023/04/13 06:36:54;;;;;;;;;;;;;;;3.27;79.93;102134.75;5064403;28;20222;-69
2023/04/13 06:39:20;;;;;;;;;;;;;;;3.22;79.84;102138.56;5062781;28;19917;-69
2023/04/13 06:41:46;;;;;;;;;;;;;;;3.15;80.04;102145.91;5064191;28;20023;-69
2023/04/13 06:44:12;;;;;;;;;;;;;;;3.16;80.06;102130.97;5050803;28;19917;-68
2023/04/13 06:46:37;;;;;;;;;;;;;;;3.21;79.68;102126.31;5066010;28;20437;-68
2023/04/13 06:49:03;;;;;;;;;;;;;;;3.30;79.64;102145.09;5064802;28;20003;-68
2023/04/13 06:51:29;;;;;;;;;;;;;;;3.44;78.33;102139.06;5065492;28;19912;-68
2023/04/13 06:53:54;;;;;;;;;;;;;;;3.42;77.75;102154.97;5065925;28;19917;-68
2023/04/13 06:56:20;;;;;;;;;;;;;;;3.38;77.70;102145.53;5062202;28;19958;-69
2023/04/13 06:58:45;;;;;;;;;;;;;;;3.41;77.95;102150.63;5070129;28;19912;-68
2023/04/13 07:01:11;;;;;;;;;;;;;;;3.44;77.11;102144.34;5061587;28;19919;-70
2023/04/13 07:03:36;;;;;;;;;;;;;;;3.45;77.40;102147.81;5049481;28;19917;-68
2023/04/13 07:06:02;;;;;;;;;;;;;;;3.48;76.49;102153.81;5067554;28;19952;-67
2023/04/13 07:08:27;;;;;;;;;;;;;;;3.50;75.88;102166.91;5067202;28;19912;-69
2023/04/13 07:10:53;;;;;;;;;;;;;;;3.49;76.29;102170.47;5065716;28;19913;-68
2023/04/13 07:13:18;;;;;;;;;;;;;;;3.53;75.96;102188.66;5066713;28;19936;-70
2023/04/13 07:15:44;;;;;;;;;;;;;;;3.48;75.97;102169.63;5066203;28;20006;-69
2023/04/13 07:18:09;;;;;;;;;;;;;;;3.51;75.84;102168.59;5067393;28;19971;-70
2023/04/13 07:20:35;;;;;;;;;;;;;;;3.52;75.85;102167.66;5065235;28;19916;-68
2023/04/13 07:23:01;;;;;;;;;;;;;;;3.61;75.25;102161.88;5063787;28;20264;-69
2023/04/13 07:25:26;;;;;;;;;;;;;;;3.67;75.02;102169.44;5068228;28;20384;-70
2023/04/13 07:27:51;;;;;;;;;;;;;;;3.66;74.55;102165.09;5065496;28;20273;-68
2023/04/13 07:30:17;;;;;;;;;;;;;;;3.73;74.45;102163.84;5065414;28;20403;-68
2023/04/13 07:32:42;;;;;;;;;;;;;;;3.76;74.28;102168.97;5066566;28;19944;-67
2023/04/13 07:35:08;;;;;;;;;;;;;;;3.81;74.13;102169.56;5066929;28;19913;-68
2023/04/13 07:37:33;;;;;;;;;;;;;;;3.83;73.93;102172.09;5065973;28;20354;-68
2023/04/13 07:39:59;;;;;;;;;;;;;;;3.82;73.12;102173.88;5069024;28;19958;-69
2023/04/13 07:42:24;;;;;;;;;;;;;;;3.70;74.28;102175.41;5065856;28;19923;-68
2023/04/13 07:44:53;;;;;;;;;;;;;;;3.78;74.30;102182.91;5064482;28;19912;-69
2023/04/13 07:47:18;;;;;;;;;;;;;;;3.82;73.75;102210.78;5064572;28;20927;-70
2023/04/13 07:49:43;;;;;;;;;;;;;;;3.80;73.80;102191.56;5066010;28;19940;-68
2023/04/13 07:52:09;;;;;;;;;;;;;;;3.88;73.44;102191.13;5065457;28;19920;-69
2023/04/13 07:54:34;;;;;;;;;;;;;;;3.87;73.46;102192.94;5064049;28;19923;-75
2023/04/13 07:57:01;;;;;;;;;;;;;;;3.95;72.36;102195.97;5066276;28;20054;-70
2023/04/13 07:59:28;;;;;;;;;;;;;;;3.88;72.43;102209.59;5065555;28;19913;-72
2023/04/13 08:01:53;;;;;;;;;;;;;;;3.87;72.89;102185.03;5063365;28;20015;-73
2023/04/13 08:04:22;;;;;;;;;;;;;;;3.90;71.74;102200.66;5063278;28;19967;-71
2023/04/13 08:06:47;;;;;;;;;;;;;;;3.75;72.73;102201.50;5065434;28;19922;-71
2023/04/13 08:09:13;;;;;;;;;;;;;;;3.72;73.08;102209.56;5065621;28;19912;-69
2023/04/13 08:11:39;;;;;;;;;;;;;;;3.71;72.60;102205.22;5064701;28;19920;-69
2023/04/13 08:14:05;;;;;;;;;;;;;;;3.75;72.87;102209.38;5062877;28;19917;-67
2023/04/13 08:16:33;;;;;;;;;;;;;;;3.78;71.97;102209.25;5074724;28;19912;-68
2023/04/13 08:19:00;;;;;;;;;;;;;;;3.76;72.63;102216.41;5074566;28;19919;-71
2023/04/13 08:21:25;;;;;;;;;;;;;;;3.86;72.67;102222.84;5074640;28;19985;-70
2023/04/13 08:23:50;;;;;;;;;;;;;;;3.93;71.76;102218.09;5074302;28;20348;-69
2023/04/13 08:26:19;;;;;;;;;;;;;;;4.05;71.20;102214.78;5074399;28;19916;-69
2023/04/13 08:28:48;;;;;;;;;;;;;;;4.10;70.68;102214.53;5074463;28;20007;-68
2023/04/13 08:31:14;;;;;;;;;;;;;;;4.11;70.06;102226.78;5074657;28;20382;-69
2023/04/13 08:33:40;;;;;;;;;;;;;;;4.01;70.15;102213.25;5075538;28;19912;-69
2023/04/13 08:36:06;;;;;;;;;;;;;;;3.92;70.34;102230.41;5075648;28;20311;-69
2023/04/13 08:38:35;;;;;;;;;;;;;;;3.96;70.44;102212.66;5075504;28;19919;-69
2023/04/13 08:41:04;;;;;;;;;;;;;;;3.95;70.27;102227.63;5075572;28;19920;-69
2023/04/13 08:43:34;;;;;;;;;;;;;;;4.01;69.78;102224.63;5075492;28;19913;-69
2023/04/13 08:46:01;;;;;;;;;;;;;;;3.94;69.38;102215.38;5075401;28;19958;-68
2023/04/13 08:48:27;;;;;;;;;;;;;;;3.92;69.81;102235.69;5075811;28;19920;-68
2023/04/13 08:50:55;;;;;;;;;;;;;;;3.87;69.41;102224.56;5074734;28;20307;-69
2023/04/13 08:53:20;;;;;;;;;;;;;;;3.77;69.83;102236.53;5074053;28;19998;-69
2023/04/13 08:55:46;;;;;;;;;;;;;;;3.86;69.52;102219.38;5073639;28;19912;-68
2023/04/13 08:58:13;;;;;;;;;;;;;;;3.87;69.84;102221.91;5073887;28;19995;-69
2023/04/13 09:00:42;;;;;;;;;;;;;;;3.98;69.23;102237.97;5073916;28;19970;-68
2023/04/13 09:03:10;;;;;;;;;;;;;;;3.99;69.53;102244.97;5073171;28;19917;-69
2023/04/13 09:05:40;;;;;;;;;;;;;;;4.09;69.26;102220.75;5073606;28;19956;-70
2023/04/13 09:08:06;;;;;;;;;;;;;;;4.25;68.58;102240.03;5073633;28;19913;-69
2023/04/13 09:10:32;;;;;;;;;;;;;;;4.15;67.98;102230.94;5055534;28;19917;-68
2023/04/13 09:12:58;;;;;;;;;;;;;;;4.15;68.52;102244.97;5073348;28;19916;-70
2023/04/13 09:15:23;;;;;;;;;;;;;;;4.14;67.72;102237.16;5080625;28;19916;-68
2023/04/13 09:17:49;;;;;;;;;;;;;;;4.21;67.89;102233.22;5084620;28;19912;-68
2023/04/13 09:20:24;;;;;;;;;;;;;;;4.16;67.04;102228.22;5076472;28;19917;-69
2023/04/13 09:22:50;;;;;;;;;;;;;;;4.12;67.19;102249.56;5073630;28;19938;-68
2023/04/13 09:25:42;;;;;;;;;;;;;;;4.12;67.17;102254.84;5073952;28;19918;-69
2023/04/13 09:28:14;;;;;;;;;;;;;;;4.21;67.93;102243.78;5068882;28;19958;-69
2023/04/13 09:30:40;;;;;;;;;;;;;;;4.41;66.50;102255.88;5073058;28;20018;-69
2023/04/13 09:33:06;;;;;;;;;;;;;;;4.49;65.49;102257.13;5073029;28;19948;-69
2023/04/13 09:35:32;;;;;;;;;;;;;;;4.61;65.55;102261.69;5072790;28;19916;-68
2023/04/13 09:38:00;;;;;;;;;;;;;;;4.65;64.71;102265.88;5073136;28;19912;-70
2023/04/13 09:40:26;;;;;;;;;;;;;;;4.51;64.23;102284.28;5073207;28;19912;-68
2023/04/13 09:42:55;;;;;;;;;;;;;;;4.33;65.32;102272.94;5073062;28;19919;-68
2023/04/13 09:45:21;;;;;;;;;;;;;;;4.23;65.09;102269.13;5072879;28;20263;-68
2023/04/13 09:47:47;;;;;;;;;;;;;;;4.25;65.18;102266.41;5073089;28;19934;-71
2023/04/13 09:50:21;;;;;;;;;;;;;;;4.37;65.13;102271.00;5038582;28;19912;-69
2023/04/13 09:52:46;;;;;;;;;;;;;;;4.36;64.91;102250.84;5073517;28;19912;-69
2023/04/13 09:55:14;;;;;;;;;;;;;;;4.41;65.23;102250.59;5072934;28;19912;-69
2023/04/13 09:57:39;;;;;;;;;;;;;;;4.52;64.70;102249.03;5072577;28;20245;-69
2023/04/13 10:00:13;;;;;;;;;;;;;;;4.60;63.80;102257.34;5072725;28;19965;-69
2023/04/13 10:02:39;;;;;;;;;;;;;;;4.54;63.14;102259.50;5054587;28;20007;-69
2023/04/13 10:05:07;;;;;;;;;;;;;;;4.55;63.70;102261.19;5072856;28;19978;-70
2023/04/13 10:07:35;;;;;;;;;;;;;;;4.64;63.05;102268.59;5073910;28;19912;-69
2023/04/13 10:10:01;;;;;;;;;;;;;;;4.63;62.79;102265.13;5072717;28;19959;-68
2023/04/13 10:12:27;;;;;;;;;;;;;;;4.70;63.33;102272.69;5072338;28;19912;-69
2023/04/13 10:14:57;;;;;;;;;;;;;;;4.84;62.54;102260.38;5072271;28;19916;-69
2023/04/13 10:17:23;;;;;;;;;;;;;;;4.97;61.96;102265.81;5072510;28;19920;-69
2023/04/13 10:19:50;;;;;;;;;;;;;;;4.91;61.91;102256.44;5072287;28;19912;-70
2023/04/13 10:22:16;;;;;;;;;;;;;;;4.92;61.71;102278.44;5072500;28;19960;-70
2023/04/13 10:24:42;;;;;;;;;;;;;;;4.91;61.76;102256.44;5072360;28;19920;-70
2023/04/13 10:27:15;;;;;;;;;;;;;;;5.00;61.16;102260.34;5054381;28;20014;-70
2023/04/13 10:29:41;;;;;;;;;;;;;;;4.92;60.64;102265.22;5071823;28;19920;-71
2023/04/13 10:32:18;;;;;;;;;;;;;;;4.95;60.32;102275.59;5072319;28;19917;-70
2023/04/13 10:34:43;;;;;;;;;;;;;;;4.85;60.65;102251.50;5072531;28;19919;-71
2023/04/13 10:37:18;;;;;;;;;;;;;;;4.73;61.45;102260.16;5072282;28;20003;-69
2023/04/13 10:39:43;;;;;;;;;;;;;;;4.83;61.33;102269.22;5072082;28;20280;-70
2023/04/13 10:42:09;;;;;;;;;;;;;;;4.90;61.12;102275.00;5072202;28;19913;-71
2023/04/13 10:44:41;;;;;;;;;;;;;;;4.90;60.22;102278.50;5072387;28;19917;-69
2023/04/13 10:47:07;;;;;;;;;;;;;;;4.86;60.28;102262.91;5054216;28;19912;-70
2023/04/13 10:49:33;;;;;;;;;;;;;;;4.77;60.23;102277.50;5072076;28;20359;-68
2023/04/13 10:51:58;;;;;;;;;;;;;;;4.82;60.93;102287.81;5072145;28;19913;-69
2023/04/13 10:54:26;;;;;;;;;;;;;;;4.86;60.08;102284.03;5071847;28;19919;-68
2023/04/13 10:56:57;;;;;;;;;;;;;;;4.91;59.30;102268.78;5072913;28;20015;-69
2023/04/13 10:59:33;;;;;;;;;;;;;;;4.92;59.50;102286.34;5073010;28;19913;-69
2023/04/13 11:01:59;;;;;;;;;;;;;;;5.00;59.67;102276.19;5072906;28;20011;-69
2023/04/13 11:04:24;;;;;;;;;;;;;;;5.14;59.37;102272.72;5072133;28;19920;-69
2023/04/13 11:06:51;;;;;;;;;;;;;;;5.28;58.86;102281.53;5054159;28;20455;-69
2023/04/13 11:09:20;;;;;;;;;;;;;;;5.43;58.75;102276.25;5072012;28;19912;-69
2023/04/13 11:11:50;;;;;;;;;;;;;;;5.59;57.81;102277.06;5072113;28;19923;-69
2023/04/13 11:14:21;;;;;;;;;;;;;;;5.40;57.06;102289.66;5072166;28;20271;-69
2023/04/13 11:16:48;;;;;;;;;;;;;;;5.25;57.81;102289.66;5071941;28;20054;-69
2023/04/13 11:19:13;;;;;;;;;;;;;;;5.21;57.66;102311.06;5071711;28;19913;-68
2023/04/13 11:21:38;;;;;;;;;;;;;;;5.18;57.54;102282.16;5071811;28;20379;-69
2023/04/13 11:24:04;;;;;;;;;;;;;;;5.22;57.56;102279.28;5072087;28;20344;-69
2023/04/13 11:26:33;;;;;;;;;;;;;;;5.28;57.54;102276.25;5075283;28;19921;-69
2023/04/13 11:28:59;;;;;;;;;;;;;;;5.22;57.19;102294.28;5075484;28;19913;-70
2023/04/13 11:31:37;;;;;;;;;;;;;;;5.35;56.90;102295.22;5075429;28;19923;-70
2023/04/13 11:34:08;;;;;;;;;;;;;;;5.37;56.51;102288.06;5075156;28;19924;-69
2023/04/13 11:36:33;;;;;;;;;;;;;;;5.41;56.52;102280.78;5075563;28;19912;-71
2023/04/13 11:39:00;;;;;;;;;;;;;;;5.45;56.60;102277.03;5057411;28;20284;-68
2023/04/13 11:41:27;;;;;;;;;;;;;;;5.51;55.63;102287.25;5075669;28;20018;-69
2023/04/13 11:43:53;;;;;;;;;;;;;;;5.48;56.10;102282.97;5075584;28;19912;-69
2023/04/13 11:46:23;;;;;;;;;;;;;;;5.47;55.32;102277.78;5075188;28;20406;-69
2023/04/13 11:48:49;;;;;;;;;;;;;;;5.51;55.40;102287.25;5075390;28;19912;-70
2023/04/13 11:51:15;;;;;;;;;;;;;;;5.57;55.11;102273.66;5074764;28;20447;-68
2023/04/13 11:53:40;;;;;;;;;;;;;;;5.58;55.28;102270.06;5075068;28;19995;-70
2023/04/13 11:56:06;;;;;;;;;;;;;;;5.65;54.66;102266.09;5075117;28;19912;-70
2023/04/13 11:58:34;;;;;;;;;;;;;;;5.79;54.36;102276.69;5075012;28;19917;-70
2023/04/13 12:01:04;;;;;;;;;;;;;;;5.88;53.21;102276.09;5074574;28;20016;-70
2023/04/13 12:03:32;;;;;;;;;;;;;;;5.85;53.39;102281.59;5074260;28;20011;-69
2023/04/13 12:06:01;;;;;;;;;;;;;;;5.92;53.22;102275.94;5074632;28;19970;-68
2023/04/13 12:08:28;;;;;;;;;;;;;;;5.93;52.81;102275.00;5074809;28;19919;-69
2023/04/13 12:10:58;;;;;;;;;;;;;;;6.03;52.11;102276.13;5075139;28;19919;-69
2023/04/13 12:13:23;;;;;;;;;;;;;;;6.01;51.84;102296.53;5057147;28;19912;-69
2023/04/13 12:15:49;;;;;;;;;;;;;;;5.92;51.44;102282.09;5074797;28;20471;-69
2023/04/13 12:18:14;;;;;;;;;;;;;;;5.88;51.77;102284.03;5081844;28;19912;-70
2023/04/13 12:20:42;;;;;;;;;;;;;;;5.92;51.34;102291.81;5093856;28;20484;-71
2023/04/13 12:23:22;;;;;;;;;;;;;;;5.95;50.49;102275.75;5069019;28;20387;-71
2023/04/13 12:26:03;;;;;;;;;;;;;;;5.95;51.27;102270.47;5075410;28;19912;-69
2023/04/13 12:28:29;;;;;;;;;;;;;;;6.01;51.18;102280.66;5075406;28;19913;-70
2023/04/13 12:31:06;;;;;;;;;;;;;;;6.06;50.40;102276.75;5075543;28;19932;-69
2023/04/13 12:33:31;;;;;;;;;;;;;;;6.06;49.94;102268.84;5074432;28;19920;-69
2023/04/13 12:35:57;;;;;;;;;;;;;;;6.04;50.01;102280.47;5074413;28;20256;-69
2023/04/13 12:38:23;;;;;;;;;;;;;;;5.99;49.70;102280.75;5074074;28;19913;-70
2023/04/13 12:40:48;;;;;;;;;;;;;;;6.01;49.64;102275.38;5074105;28;19912;-70
2023/04/13 12:43:13;;;;;;;;;;;;;;;6.00;49.04;102284.25;5073905;28;20356;-69
2023/04/13 12:45:39;;;;;;;;;;;;;;;6.09;49.83;102275.75;5074289;28;19963;-68